createdAt,value
2022-08-20T00:02:20.325Z,9.80
2022-08-20T00:04:52.613Z,10.20
2022-08-20T00:07:24.841Z,9.70
2022-08-20T00:09:57.140Z,10.60
2022-08-20T00:12:30.033Z,9.30
2022-08-20T00:15:02.456Z,9.30
2022-08-20T00:17:36.927Z,9.40
2022-08-20T00:20:14.287Z,9.60
2022-08-20T00:22:46.476Z,9.50
2022-08-20T00:25:19.995Z,9.50
2022-08-20T00:27:52.298Z,10.70
2022-08-20T00:30:25.464Z,9.80
2022-08-20T00:33:00.880Z,9.80
2022-08-20T00:35:36.723Z,10.10
2022-08-20T00:38:09.060Z,9.30
2022-08-20T00:40:45.005Z,9.20
2022-08-20T00:43:37.323Z,9.10
2022-08-20T00:46:12.328Z,8.40
2022-08-20T00:48:47.921Z,9.50
2022-08-20T00:51:29.984Z,8.90
2022-08-20T00:54:08.217Z,8.90
2022-08-20T00:56:44.147Z,8.10
2022-08-20T00:59:22.834Z,9.10
2022-08-20T01:01:56.431Z,10.30
2022-08-20T01:04:33.812Z,11.00
2022-08-20T01:07:08.529Z,8.60
2022-08-20T01:09:58.423Z,10.10
2022-08-20T01:12:33.661Z,8.60
2022-08-20T01:15:12.007Z,8.90
2022-08-20T01:17:47.348Z,8.60
2022-08-20T01:20:24.216Z,8.40
2022-08-20T01:23:23.055Z,8.50
2022-08-20T01:26:00.425Z,7.80
2022-08-20T01:28:38.326Z,8.70
2022-08-20T01:31:13.019Z,7.20
2022-08-20T01:33:46.223Z,9.00
2022-08-20T01:36:23.839Z,9.10
2022-08-20T01:38:56.319Z,7.90
2022-08-20T01:41:40.848Z,8.70
2022-08-20T01:44:16.887Z,8.50
2022-08-20T01:46:55.346Z,7.40
2022-08-20T01:49:34.987Z,7.20
2022-08-20T01:52:11.558Z,7.40
2022-08-20T01:54:43.829Z,8.30
2022-08-20T01:57:18.567Z,7.70
2022-08-20T01:59:51.611Z,9.50
2022-08-20T02:02:25.089Z,7.60
2022-08-20T02:04:58.846Z,10.30
2022-08-20T02:07:32.556Z,9.80
2022-08-20T02:10:05.854Z,11.20
2022-08-20T02:12:39.964Z,7.90
2022-08-20T02:15:14.353Z,9.20
2022-08-20T02:17:46.951Z,7.40
2022-08-20T02:20:25.227Z,7.50
2022-08-20T02:22:59.860Z,7.60
2022-08-20T02:25:35.200Z,8.60
2022-08-20T02:30:43.907Z,6.90
2022-08-20T02:33:18.485Z,8.90
2022-08-20T02:35:53.208Z,9.00
2022-08-20T02:38:25.502Z,9.10
2022-08-20T02:40:57.672Z,8.60
2022-08-20T02:43:32.106Z,8.40
2022-08-20T02:46:05.035Z,11.30
2022-08-20T02:48:37.316Z,7.90
2022-08-20T02:51:10.291Z,7.90
2022-08-20T02:53:43.234Z,8.30
2022-08-20T02:56:16.248Z,7.10
2022-08-20T02:58:48.879Z,9.00
2022-08-20T03:01:21.315Z,8.90
2022-08-20T03:03:53.625Z,6.90
2022-08-20T03:06:26.266Z,8.70
2022-08-20T03:08:58.987Z,10.00
2022-08-20T03:11:31.747Z,9.60
2022-08-20T03:14:03.936Z,10.50
2022-08-20T03:16:36.112Z,10.50
2022-08-20T03:19:08.653Z,8.90
2022-08-20T03:21:40.885Z,10.00
2022-08-20T03:24:13.176Z,8.70
2022-08-20T03:26:45.410Z,9.70
2022-08-20T03:29:17.617Z,10.00
2022-08-20T03:31:49.849Z,11.40
2022-08-20T03:34:22.031Z,10.90
2022-08-20T03:36:54.229Z,8.90
2022-08-20T03:39:26.427Z,10.10
2022-08-20T03:41:58.670Z,10.00
2022-08-20T03:44:30.840Z,13.40
2022-08-20T03:47:03.936Z,9.60
2022-08-20T03:49:36.402Z,9.70
2022-08-20T03:52:09.313Z,10.20
2022-08-20T03:54:41.608Z,9.60
2022-08-20T03:57:16.850Z,9.80
2022-08-20T03:59:49.811Z,9.70
2022-08-20T04:02:27.498Z,9.50
2022-08-20T04:04:59.659Z,11.90
2022-08-20T04:07:31.804Z,9.50
2022-08-20T04:10:10.042Z,9.10
2022-08-20T04:12:52.691Z,9.30
2022-08-20T04:15:25.891Z,10.60
2022-08-20T04:17:58.300Z,9.10
2022-08-20T04:20:30.884Z,9.90
2022-08-20T04:23:02.988Z,7.70
2022-08-20T04:25:37.052Z,9.20
2022-08-20T04:28:25.748Z,10.40
2022-08-20T04:31:00.037Z,9.50
2022-08-20T04:33:34.016Z,10.80
2022-08-20T04:38:48.490Z,8.70
2022-08-20T04:41:24.392Z,9.30
2022-08-20T04:43:58.330Z,9.90
2022-08-20T04:46:32.831Z,10.60
2022-08-20T04:49:05.193Z,10.00
2022-08-20T04:51:37.649Z,9.20
2022-08-20T04:54:09.945Z,11.00
2022-08-20T04:56:42.264Z,10.50
2022-08-20T04:59:14.384Z,10.60
2022-08-20T05:01:46.570Z,10.80
2022-08-20T05:04:18.759Z,9.20
2022-08-20T05:06:51.125Z,9.10
2022-08-20T05:09:23.309Z,8.70
2022-08-20T05:11:55.543Z,9.00
2022-08-20T05:14:28.004Z,8.90
2022-08-20T05:17:03.652Z,8.30
2022-08-20T05:19:38.960Z,8.40
2022-08-20T05:22:11.304Z,7.30
2022-08-20T05:24:43.551Z,7.70
2022-08-20T05:27:24.785Z,6.70
2022-08-20T05:30:01.520Z,8.10
2022-08-20T05:32:35.657Z,8.00
2022-08-20T05:35:17.095Z,7.70
2022-08-20T05:37:49.638Z,7.70
2022-08-20T05:40:23.389Z,6.20
2022-08-20T05:42:56.010Z,7.30
2022-08-20T05:45:28.518Z,8.50
2022-08-20T05:48:01.376Z,7.60
2022-08-20T05:50:36.243Z,6.20
2022-08-20T05:53:08.743Z,6.80
2022-08-20T05:55:41.988Z,7.80
2022-08-20T05:58:19.804Z,8.90
2022-08-20T06:00:53.404Z,8.20
2022-08-20T06:03:43.709Z,8.20
2022-08-20T06:06:30.224Z,6.90
2022-08-20T06:09:08.511Z,8.60
2022-08-20T06:11:40.719Z,6.70
2022-08-20T06:14:12.951Z,7.00
2022-08-20T06:16:57.411Z,8.40
2022-08-20T06:19:32.427Z,7.20
2022-08-20T06:22:17.644Z,7.40
2022-08-20T06:24:53.334Z,7.20
2022-08-20T06:27:26.324Z,7.60
2022-08-20T06:29:58.516Z,8.20
2022-08-20T06:32:32.761Z,7.00
2022-08-20T06:35:07.327Z,8.10
2022-08-20T06:37:41.573Z,7.50
2022-08-20T06:40:17.292Z,7.00
2022-08-20T06:42:49.580Z,7.60
2022-08-20T06:45:25.330Z,8.30
2022-08-20T06:48:00.077Z,7.80
2022-08-20T06:50:43.181Z,8.10
2022-08-20T06:53:21.960Z,6.30
2022-08-20T06:55:56.161Z,7.40
2022-08-20T06:58:37.833Z,7.20
2022-08-20T07:01:13.871Z,8.20
2022-08-20T07:03:54.697Z,6.90
2022-08-20T07:06:28.488Z,8.50
2022-08-20T07:09:00.728Z,6.70
2022-08-20T07:11:35.349Z,6.60
2022-08-20T07:14:07.559Z,8.00
2022-08-20T07:16:40.232Z,7.60
2022-08-20T07:19:12.476Z,6.70
2022-08-20T07:21:44.811Z,7.80
2022-08-20T07:24:17.005Z,7.60
2022-08-20T07:26:49.460Z,7.40
2022-08-20T07:29:21.865Z,7.60
2022-08-20T07:32:11.339Z,7.30
2022-08-20T07:34:43.661Z,8.70
2022-08-20T07:37:17.147Z,7.70
2022-08-20T07:39:52.607Z,8.10
2022-08-20T07:42:24.856Z,7.20
2022-08-20T07:44:57.059Z,7.30
2022-08-20T07:47:29.282Z,7.20
2022-08-20T07:50:01.567Z,8.00
2022-08-20T07:52:35.426Z,7.20
2022-08-20T07:55:11.257Z,7.20
2022-08-20T07:57:44.134Z,7.10
2022-08-20T08:00:19.347Z,7.50
2022-08-20T08:02:51.555Z,7.10
2022-08-20T08:05:24.036Z,6.60
2022-08-20T08:07:57.657Z,7.20
2022-08-20T08:10:30.495Z,6.60
2022-08-20T08:13:07.168Z,7.00
2022-08-20T08:15:41.528Z,6.90
2022-08-20T08:18:17.524Z,6.90
2022-08-20T08:20:53.751Z,6.90
2022-08-20T08:23:32.123Z,6.00
2022-08-20T08:26:04.699Z,6.70
2022-08-20T08:28:37.192Z,6.50
2022-08-20T08:31:09.691Z,6.20
2022-08-20T08:33:42.519Z,6.40
2022-08-20T08:36:17.090Z,5.80
2022-08-20T08:41:23.024Z,6.00
2022-08-20T08:43:58.783Z,7.20
2022-08-20T08:46:33.745Z,6.80
2022-08-20T08:49:06.057Z,6.90
2022-08-20T08:51:44.000Z,6.70
2022-08-20T08:54:19.971Z,5.70
2022-08-20T08:56:55.787Z,8.10
2022-08-20T08:59:52.111Z,5.60
2022-08-20T09:02:27.561Z,6.80
2022-08-20T09:05:03.081Z,6.90
2022-08-20T09:07:38.010Z,6.40
2022-08-20T09:10:13.115Z,6.90
2022-08-20T09:12:47.832Z,7.30
2022-08-20T09:15:21.365Z,4.80
2022-08-20T09:17:54.019Z,7.20
2022-08-20T09:20:27.002Z,6.40
2022-08-20T09:22:59.759Z,5.90
2022-08-20T09:25:32.096Z,6.30
2022-08-20T09:28:04.460Z,7.20
2022-08-20T09:30:37.547Z,4.70
2022-08-20T09:33:10.600Z,7.10
2022-08-20T09:35:44.951Z,6.50
2022-08-20T09:38:17.217Z,6.40
2022-08-20T09:40:49.413Z,5.90
2022-08-20T09:43:21.656Z,6.00
2022-08-20T09:45:53.892Z,5.70
2022-08-20T09:48:31.858Z,5.90
2022-08-20T09:51:05.416Z,7.40
2022-08-20T09:53:38.006Z,5.70
2022-08-20T09:56:11.587Z,6.40
2022-08-20T09:58:51.076Z,7.00
2022-08-20T10:01:24.342Z,7.50
2022-08-20T10:03:56.597Z,6.50
2022-08-20T10:06:28.802Z,5.40
2022-08-20T10:09:01.048Z,4.60
2022-08-20T10:11:33.243Z,6.30
2022-08-20T10:14:05.585Z,5.90
2022-08-20T10:16:38.568Z,4.80
2022-08-20T10:19:10.780Z,6.30
2022-08-20T10:21:43.618Z,5.70
2022-08-20T10:24:15.819Z,6.00
2022-08-20T10:26:48.628Z,7.70
2022-08-20T10:29:20.875Z,5.00
2022-08-20T10:31:53.080Z,4.50
2022-08-20T10:34:25.587Z,5.80
2022-08-20T10:36:59.190Z,4.70
2022-08-20T10:39:31.554Z,5.20
2022-08-20T10:42:04.460Z,5.90
2022-08-20T10:44:36.284Z,6.30
2022-08-20T10:47:21.756Z,6.20
2022-08-20T10:49:56.611Z,6.50
2022-08-20T10:52:29.775Z,5.10
2022-08-20T10:55:04.367Z,6.60
2022-08-20T11:00:09.123Z,5.10
2022-08-20T11:02:41.820Z,5.90
2022-08-20T11:05:13.989Z,6.40
2022-08-20T11:07:55.314Z,6.70
2022-08-20T11:10:31.192Z,5.50
2022-08-20T11:15:35.151Z,5.80
2022-08-20T11:18:07.952Z,6.70
2022-08-20T11:20:40.538Z,6.00
2022-08-20T11:23:13.010Z,6.50
2022-08-20T11:25:45.177Z,7.10
2022-08-20T11:28:17.770Z,7.10
2022-08-20T11:31:04.582Z,5.50
2022-08-20T11:33:36.771Z,6.40
2022-08-20T11:36:09.971Z,5.50
2022-08-20T11:38:42.143Z,6.00
2022-08-20T11:41:14.536Z,5.80
2022-08-20T11:44:04.715Z,5.60
2022-08-20T11:46:38.906Z,6.10
2022-08-20T11:49:11.143Z,6.40
2022-08-20T11:51:49.830Z,6.40
2022-08-20T11:54:22.649Z,5.40
2022-08-20T11:56:54.883Z,6.30
2022-08-20T11:59:27.798Z,5.60
2022-08-20T12:02:02.746Z,5.90
2022-08-20T12:04:35.824Z,5.70
2022-08-20T12:07:13.518Z,5.80
2022-08-20T12:09:51.342Z,5.70
2022-08-20T12:12:25.272Z,7.90
2022-08-20T12:14:57.925Z,6.50
2022-08-20T12:17:32.932Z,5.10
2022-08-20T12:20:09.024Z,6.30
2022-08-20T12:22:41.233Z,6.60
2022-08-20T12:25:14.272Z,5.60
2022-08-20T12:27:47.290Z,5.90
2022-08-20T12:30:21.813Z,5.90
2022-08-20T12:32:54.383Z,6.50
2022-08-20T12:35:28.397Z,5.90
2022-08-20T12:38:06.937Z,6.40
2022-08-20T12:40:39.619Z,5.40
2022-08-20T12:43:11.807Z,6.60
2022-08-20T12:45:44.022Z,5.90
2022-08-20T12:48:16.703Z,6.80
2022-08-20T12:50:50.283Z,5.30
2022-08-20T12:53:22.815Z,6.60
2022-08-20T12:55:55.084Z,6.40
2022-08-20T12:58:27.301Z,5.70
2022-08-20T13:00:59.554Z,5.30
2022-08-20T13:03:32.327Z,6.40
2022-08-20T13:06:05.568Z,6.50
2022-08-20T13:08:37.908Z,6.40
2022-08-20T13:11:10.182Z,5.30
2022-08-20T13:13:43.661Z,6.20
2022-08-20T13:16:16.869Z,5.60
2022-08-20T13:18:49.105Z,6.60
2022-08-20T13:21:23.971Z,7.10
2022-08-20T13:23:56.451Z,6.00
2022-08-20T13:26:28.622Z,5.80
2022-08-20T13:29:03.316Z,5.20
2022-08-20T13:31:35.481Z,5.80
2022-08-20T13:34:07.778Z,6.60
2022-08-20T13:36:40.956Z,6.10
2022-08-20T13:39:13.149Z,5.20
2022-08-20T13:41:45.419Z,6.60
2022-08-20T13:44:18.483Z,6.60
2022-08-20T13:46:50.719Z,5.50
2022-08-20T13:49:23.071Z,5.60
2022-08-20T13:51:55.259Z,6.50
2022-08-20T13:54:30.274Z,5.90
2022-08-20T13:57:10.033Z,6.20
2022-08-20T13:59:44.268Z,6.00
2022-08-20T14:02:17.652Z,5.60
2022-08-20T14:04:50.760Z,5.50
2022-08-20T14:07:28.760Z,5.90
2022-08-20T14:10:07.134Z,5.00
2022-08-20T14:12:39.339Z,7.10
2022-08-20T14:15:14.002Z,6.30
2022-08-20T14:20:25.409Z,5.10
2022-08-20T14:23:02.591Z,6.10
2022-08-20T14:25:36.149Z,5.90
2022-08-20T14:28:18.245Z,5.70
2022-08-20T14:30:53.455Z,5.20
2022-08-20T14:33:27.108Z,5.80
2022-08-20T14:35:59.227Z,4.80
2022-08-20T14:38:31.529Z,6.40
2022-08-20T14:41:03.796Z,5.30
2022-08-20T14:43:35.988Z,4.80
2022-08-20T14:46:08.423Z,5.80
2022-08-20T14:48:40.604Z,5.40
2022-08-20T14:51:12.827Z,4.90
2022-08-20T14:53:45.046Z,7.10
2022-08-20T14:56:18.155Z,5.60
2022-08-20T14:58:50.784Z,7.10
2022-08-20T15:01:22.996Z,5.10
2022-08-20T15:03:55.358Z,5.80
2022-08-20T15:06:27.633Z,5.50
2022-08-20T15:09:00.302Z,5.60
2022-08-20T15:11:34.668Z,6.50
2022-08-20T15:14:06.997Z,4.90
2022-08-20T15:16:40.996Z,6.00
2022-08-20T15:19:13.160Z,5.00
2022-08-20T15:21:45.859Z,4.90
2022-08-20T15:24:19.306Z,4.80
2022-08-20T15:26:51.980Z,4.60
2022-08-20T15:29:24.128Z,6.40
2022-08-20T15:31:56.308Z,5.10
2022-08-20T15:34:29.192Z,5.70
2022-08-20T15:37:07.063Z,5.20
2022-08-20T15:39:39.874Z,5.60
2022-08-20T15:42:13.676Z,5.60
2022-08-20T15:44:46.705Z,6.30
2022-08-20T15:47:24.933Z,5.90
2022-08-20T15:50:02.711Z,5.20
2022-08-20T15:52:41.867Z,5.30
2022-08-20T15:55:17.560Z,5.90
2022-08-20T15:57:56.863Z,5.60
2022-08-20T16:00:41.730Z,6.50
2022-08-20T16:03:46.644Z,6.30
2022-08-20T16:06:26.272Z,5.50
2022-08-20T16:09:15.795Z,5.90
2022-08-20T16:11:56.224Z,5.20
2022-08-20T16:14:33.732Z,5.10
2022-08-20T16:17:11.003Z,5.00
2022-08-20T16:19:52.299Z,6.00
2022-08-20T16:22:25.444Z,5.40
2022-08-20T16:24:57.923Z,6.00
2022-08-20T16:27:40.699Z,6.10
2022-08-20T16:30:21.774Z,5.70
2022-08-20T16:33:01.923Z,5.70
2022-08-20T16:35:38.852Z,5.10
2022-08-20T16:38:21.382Z,5.90
2022-08-20T16:40:57.463Z,4.50
2022-08-20T16:43:38.105Z,5.40
2022-08-20T16:46:17.884Z,6.00
2022-08-20T16:48:58.223Z,5.60
2022-08-20T16:51:49.426Z,6.50
2022-08-20T16:54:29.675Z,6.20
2022-08-20T16:57:07.399Z,6.20
2022-08-20T16:59:57.588Z,6.80
2022-08-20T17:02:30.188Z,6.30
2022-08-20T17:05:06.629Z,6.20
2022-08-20T17:07:49.444Z,5.30
2022-08-20T17:10:27.475Z,7.20
2022-08-20T17:13:04.278Z,7.50
2022-08-20T17:15:39.922Z,8.10
2022-08-20T17:18:23.907Z,7.70
2022-08-20T17:21:01.712Z,7.20
2022-08-20T17:23:54.585Z,7.30
2022-08-20T17:26:35.414Z,6.40
2022-08-20T17:29:16.338Z,7.60
2022-08-20T17:31:51.677Z,7.40
2022-08-20T17:34:26.479Z,10.40
2022-08-20T17:37:02.136Z,7.90
2022-08-20T17:39:34.487Z,8.40
2022-08-20T17:42:11.842Z,8.50
2022-08-20T17:44:49.480Z,8.30
2022-08-20T17:47:25.559Z,8.00
2022-08-20T17:50:03.269Z,7.50
2022-08-20T17:52:40.420Z,7.80
2022-08-20T17:55:14.036Z,7.70
2022-08-20T17:57:49.759Z,8.50
2022-08-20T18:00:25.861Z,8.40
2022-08-20T18:03:03.152Z,7.90
2022-08-20T18:05:38.868Z,10.00
2022-08-20T18:08:28.958Z,8.30
2022-08-20T18:11:10.066Z,8.30
2022-08-20T18:13:52.212Z,8.50
2022-08-20T18:16:30.843Z,8.20
2022-08-20T18:19:15.246Z,8.00
2022-08-20T18:22:11.244Z,8.80
2022-08-20T18:24:52.420Z,6.80
2022-08-20T18:27:26.862Z,7.40
2022-08-20T18:30:01.973Z,7.90
2022-08-20T18:32:37.014Z,7.50
2022-08-20T18:37:44.627Z,7.90
2022-08-20T18:40:33.242Z,8.80
2022-08-20T18:43:15.428Z,7.80
2022-08-20T18:45:47.688Z,8.60
2022-08-20T18:48:25.996Z,8.20
2022-08-20T18:50:59.719Z,8.50
2022-08-20T18:53:34.673Z,7.50
2022-08-20T18:58:51.424Z,6.10
2022-08-20T19:01:25.298Z,7.90
2022-08-20T19:03:59.372Z,7.30
2022-08-20T19:06:46.460Z,8.10
2022-08-20T19:09:27.740Z,9.20
2022-08-20T19:12:10.486Z,9.60
2022-08-20T19:15:02.090Z,8.70
2022-08-20T19:17:58.124Z,7.50
2022-08-20T19:20:33.589Z,9.20
2022-08-20T19:23:10.532Z,8.20
2022-08-20T19:25:53.880Z,9.20
2022-08-20T19:28:30.146Z,7.00
2022-08-20T19:31:14.103Z,8.30
2022-08-20T19:33:47.076Z,7.10
2022-08-20T19:36:22.170Z,8.80
2022-08-20T19:38:58.768Z,8.80
2022-08-20T19:41:33.496Z,8.70
2022-08-20T19:44:05.760Z,8.10
2022-08-20T19:46:40.679Z,8.20
2022-08-20T19:49:21.787Z,7.30
2022-08-20T19:52:04.991Z,7.90
2022-08-20T19:54:49.999Z,8.50
2022-08-20T19:57:24.264Z,9.00
2022-08-20T19:59:59.324Z,8.20
2022-08-20T20:02:35.401Z,7.80
2022-08-20T20:05:12.129Z,7.90
2022-08-20T20:07:47.269Z,7.70
2022-08-20T20:12:57.074Z,7.30
2022-08-20T20:15:29.771Z,8.20
2022-08-20T20:18:02.644Z,7.60
2022-08-20T20:20:38.611Z,8.00
2022-08-20T20:23:38.830Z,9.30
2022-08-20T20:26:21.439Z,9.10
2022-08-20T20:28:56.052Z,8.40
2022-08-20T20:31:31.617Z,8.80
2022-08-20T20:34:11.027Z,9.20
2022-08-20T20:36:46.232Z,6.80
2022-08-20T20:42:03.603Z,9.10
2022-08-20T20:44:38.536Z,7.40
2022-08-20T20:47:21.043Z,8.20
2022-08-20T20:49:56.215Z,7.50
2022-08-20T20:55:13.292Z,7.50
2022-08-20T20:57:45.487Z,8.30
2022-08-20T21:00:21.364Z,8.70
2022-08-20T21:02:54.085Z,7.70
2022-08-20T21:05:28.787Z,8.20
2022-08-20T21:08:03.403Z,7.80
2022-08-20T21:10:38.403Z,8.70
2022-08-20T21:13:11.920Z,9.00
2022-08-20T21:15:44.142Z,8.90
2022-08-20T21:18:16.327Z,8.50
2022-08-20T21:20:50.860Z,8.90
2022-08-20T21:23:40.211Z,8.40
2022-08-20T21:26:14.383Z,7.30
2022-08-20T21:28:46.659Z,9.40
2022-08-20T21:31:18.927Z,7.90
2022-08-20T21:33:51.128Z,7.40
2022-08-20T21:36:23.266Z,8.40
2022-08-20T21:38:55.512Z,7.40
2022-08-20T21:41:30.160Z,7.30
2022-08-20T21:44:07.098Z,6.90
2022-08-20T21:46:39.312Z,8.20
2022-08-20T21:49:11.512Z,7.40
2022-08-20T21:51:43.791Z,8.60
2022-08-20T21:54:15.940Z,8.80
2022-08-20T21:56:50.739Z,8.80
2022-08-20T21:59:25.318Z,8.70
2022-08-20T22:01:58.119Z,7.50
2022-08-20T22:04:35.230Z,6.40
2022-08-20T22:07:08.411Z,8.40
2022-08-20T22:09:40.618Z,9.80
2022-08-20T22:12:19.071Z,7.50
2022-08-20T22:14:51.684Z,8.80
2022-08-20T22:17:23.923Z,8.40
2022-08-20T22:19:56.198Z,8.70
2022-08-20T22:22:28.418Z,7.90
2022-08-20T22:25:00.567Z,8.60
2022-08-20T22:27:32.918Z,8.20
2022-08-20T22:30:05.399Z,9.40
2022-08-20T22:32:50.465Z,8.10
2022-08-20T22:35:24.244Z,9.10
2022-08-20T22:37:56.416Z,9.40
2022-08-20T22:40:28.679Z,9.20
2022-08-20T22:43:01.058Z,8.40
2022-08-20T22:45:33.540Z,9.20
2022-08-20T22:48:06.942Z,9.40
2022-08-20T22:50:39.991Z,8.80
2022-08-20T22:53:14.256Z,9.00
2022-08-20T22:55:46.747Z,8.30
2022-08-20T22:58:20.422Z,7.90
2022-08-20T23:01:05.212Z,8.80
2022-08-20T23:03:39.733Z,8.60
2022-08-20T23:06:13.807Z,8.90
2022-08-20T23:08:46.208Z,8.90
2022-08-20T23:11:18.352Z,7.80
2022-08-20T23:13:50.589Z,6.60
2022-08-20T23:16:22.813Z,8.30
2022-08-20T23:18:55.339Z,9.50
2022-08-20T23:21:28.547Z,8.30
2022-08-20T23:24:00.731Z,9.50
2022-08-20T23:26:33.027Z,9.70
2022-08-20T23:29:05.285Z,8.90
2022-08-20T23:31:37.463Z,8.70
2022-08-20T23:34:09.883Z,8.10
2022-08-20T23:36:42.137Z,9.10
2022-08-20T23:39:14.671Z,9.50
2022-08-20T23:41:47.729Z,8.90
2022-08-20T23:44:26.494Z,9.50
2022-08-20T23:47:03.263Z,9.30
2022-08-20T23:49:35.480Z,9.50
2022-08-20T23:52:07.952Z,8.60
2022-08-20T23:54:40.140Z,8.70
2022-08-20T23:57:12.394Z,9.00
2022-08-20T23:59:46.221Z,9.20
